Time;durP1;ratioP1;P1;durP2;ratioP2;P2;SDS_P1;SDS_P2;PMS_P1;PMS_P2;Temp;Humidity;BMP_temperature;BMP_pressure;BME280_temperature;BME280_humidity;BME280_pressure;Samples;Min_cycle;Max_cycle;Signal;HPM_P1;HPM_P2
2022/11/05 00:10:14;;;;;;;;;4.50;4.50;;;;;21.27;57.00;99934.16;106415;1286;22110;-81
2022/11/05 00:18:11;;;;;;;;;5.50;5.50;;;;;21.27;56.88;99924.85;106419;1295;20006;-82
2022/11/05 00:20:38;;;;;;;;;4.67;4.67;;;;;21.27;57.02;99925.61;106417;1286;21771;-81
2022/11/05 00:25:51;;;;;;;;;4.50;4.50;;;;;21.26;56.94;99917.55;106354;1291;19570;-82
2022/11/05 00:28:18;;;;;;;;;4.00;4.00;;;;;21.26;56.88;99915.09;106444;1285;19181;-81
2022/11/05 00:30:46;;;;;;;;;5.00;4.00;;;;;21.26;57.07;99923.38;106457;1286;18467;-81
2022/11/05 00:33:13;;;;;;;;;5.00;4.00;;;;;21.27;57.00;99925.81;106495;1289;19527;-81
2022/11/05 00:35:41;;;;;;;;;6.00;6.00;;;;;21.27;56.96;99934.50;106448;1294;20781;-81
2022/11/05 00:38:08;;;;;;;;;6.00;6.00;;;;;21.27;56.91;99937.77;106342;1295;18476;-82
2022/11/05 00:40:35;;;;;;;;;4.00;4.00;;;;;21.27;56.79;99925.06;106434;1278;18045;-81
2022/11/05 00:45:48;;;;;;;;;4.50;4.00;;;;;21.25;56.93;99914.54;106490;1295;19920;-81
2022/11/05 00:51:00;;;;;;;;;4.00;4.00;;;;;21.26;56.88;99926.33;106431;1286;17766;-83
2022/11/05 00:53:28;;;;;;;;;5.00;5.00;;;;;21.26;56.85;99928.29;106341;1286;18738;-81
2022/11/05 00:55:55;;;;;;;;;5.50;5.00;;;;;21.27;56.92;99928.52;106359;1298;18419;-82
2022/11/05 00:58:22;;;;;;;;;7.50;7.50;;;;;21.26;56.88;99931.23;106377;1285;17891;-81
2022/11/05 01:00:50;;;;;;;;;5.50;5.50;;;;;21.26;56.78;99934.07;106405;1294;18439;-81
2022/11/05 01:03:17;;;;;;;;;9.00;9.00;;;;;21.26;57.05;99931.60;106395;1293;20679;-80
2022/11/05 01:05:45;;;;;;;;;6.00;6.00;;;;;21.25;56.77;99927.12;106408;1295;19863;-81
2022/11/05 01:08:12;;;;;;;;;5.00;4.00;;;;;21.26;56.96;99922.67;106344;1294;21551;-81
2022/11/05 01:10:39;;;;;;;;;4.00;4.00;;;;;21.26;56.88;99917.44;106344;1294;18069;-81
2022/11/05 01:13:07;;;;;;;;;5.00;5.00;;;;;21.25;56.78;99920.95;106408;1295;17754;-81
2022/11/05 01:15:34;;;;;;;;;4.50;4.50;;;;;21.25;56.91;99918.98;106404;1294;18484;-81
2022/11/05 01:18:01;;;;;;;;;5.00;5.00;;;;;21.26;56.98;99922.30;106390;1288;18017;-81
2022/11/05 01:20:29;;;;;;;;;5.00;5.00;;;;;21.26;56.87;99922.17;106323;1294;21443;-82
2022/11/05 01:22:56;;;;;;;;;5.00;5.00;;;;;21.25;56.74;99921.20;106510;1290;19870;-82
2022/11/05 01:25:23;;;;;;;;;4.50;4.50;;;;;21.24;56.76;99919.77;106497;1294;18033;-81
2022/11/05 01:27:51;;;;;;;;;4.00;4.00;;;;;21.25;56.73;99922.05;106402;1294;17743;-82
2022/11/05 01:30:18;;;;;;;;;5.00;4.50;;;;;21.25;56.79;99918.39;106413;1294;20390;-81
2022/11/05 01:32:46;;;;;;;;;6.50;5.00;;;;;21.25;56.71;99915.76;106431;1287;18199;-81
2022/11/05 01:35:13;;;;;;;;;5.00;5.00;;;;;21.26;56.91;99923.80;106526;1278;19270;-82
2022/11/05 01:37:40;;;;;;;;;5.00;4.50;;;;;21.25;56.82;99923.89;106451;1289;18459;-81
2022/11/05 01:40:08;;;;;;;;;5.00;5.00;;;;;21.24;56.73;99925.52;106498;1298;18057;-81
2022/11/05 01:42:35;;;;;;;;;5.33;5.33;;;;;21.24;56.67;99929.67;106466;1295;17764;-82
2022/11/05 01:45:02;;;;;;;;;8.00;8.00;;;;;21.24;56.74;99930.92;106502;1282;19836;-81
2022/11/05 01:47:30;;;;;;;;;5.00;4.00;;;;;21.24;56.70;99939.65;106489;1294;18056;-81
2022/11/05 01:49:58;;;;;;;;;6.50;6.50;;;;;21.24;56.69;99938.59;106391;1285;21688;-81
2022/11/05 01:52:25;;;;;;;;;5.00;4.00;;;;;21.24;56.76;99933.70;106358;1285;21540;-82
2022/11/05 01:54:52;;;;;;;;;8.00;8.00;;;;;21.24;56.63;99931.05;106379;1293;22703;-81
2022/11/05 01:57:20;;;;;;;;;6.67;5.33;;;;;21.24;56.71;99923.16;106508;1286;18212;-81
2022/11/05 01:59:47;;;;;;;;;6.00;5.00;;;;;21.24;56.80;99924.56;106502;1295;18475;-81
2022/11/05 02:02:14;;;;;;;;;6.00;5.50;;;;;21.24;56.77;99925.65;106397;1277;18083;-81
2022/11/05 02:04:42;;;;;;;;;5.00;5.00;;;;;21.23;56.83;99927.23;106410;1286;19372;-81
2022/11/05 02:07:09;;;;;;;;;3.50;3.50;;;;;21.24;56.72;99929.80;106409;1295;18604;-81
2022/11/05 02:09:37;;;;;;;;;6.00;6.00;;;;;21.23;56.72;99927.58;106437;1294;18501;-81
2022/11/05 02:12:04;;;;;;;;;2.00;2.00;;;;;21.23;56.70;99929.84;106532;1286;18532;-81
2022/11/05 02:14:31;;;;;;;;;6.00;6.00;;;;;21.23;56.64;99932.30;106528;1289;18453;-81
2022/11/05 02:16:59;;;;;;;;;4.00;4.00;;;;;21.23;56.81;99934.69;106413;1301;18074;-81
2022/11/05 02:19:26;;;;;;;;;4.00;4.00;;;;;21.23;56.70;99938.17;106523;1286;17740;-81
2022/11/05 02:21:53;;;;;;;;;4.00;4.00;;;;;21.22;56.59;99938.20;106387;1294;19256;-81
2022/11/05 02:24:21;;;;;;;;;5.00;5.00;;;;;21.23;56.74;99937.28;106397;1294;20463;-81
2022/11/05 02:26:48;;;;;;;;;;;;;;;21.22;56.60;99937.86;106367;1295;23190;-82
2022/11/05 02:29:16;;;;;;;;;3.00;3.00;;;;;21.22;56.58;99933.84;106416;1287;19232;-81
2022/11/05 02:31:43;;;;;;;;;5.00;5.00;;;;;21.22;56.66;99933.38;106346;1282;22002;-81
2022/11/05 02:34:10;;;;;;;;;5.00;5.00;;;;;21.23;56.48;99935.41;106497;1286;22190;-81
2022/11/05 02:36:38;;;;;;;;;5.00;4.50;;;;;21.22;56.58;99931.36;106466;1294;19259;-81
2022/11/05 02:39:05;;;;;;;;;5.00;5.00;;;;;21.22;56.67;99937.15;106487;1294;18421;-81
2022/11/05 02:41:32;;;;;;;;;5.00;5.00;;;;;21.20;56.54;99931.78;106509;1285;19964;-81
2022/11/05 02:44:00;;;;;;;;;2.00;2.00;;;;;21.20;56.65;99937.48;106389;1294;19294;-81
2022/11/05 02:46:27;;;;;;;;;4.50;4.00;;;;;21.21;56.50;99936.47;106463;1278;18453;-81
2022/11/05 02:48:54;;;;;;;;;4.00;4.00;;;;;21.21;56.66;99937.98;106410;1295;21820;-81
2022/11/05 02:51:22;;;;;;;;;5.00;5.00;;;;;21.20;56.65;99933.25;106444;1294;20742;-81
2022/11/05 02:53:49;;;;;;;;;2.00;2.00;;;;;21.20;56.45;99930.14;106427;1294;28134;-81
2022/11/05 02:56:17;;;;;;;;;5.00;5.00;;;;;21.20;56.71;99931.15;106378;1298;18789;-81
2022/11/05 02:58:44;;;;;;;;;4.00;4.00;;;;;21.20;56.65;99928.76;106349;1293;19250;-81
2022/11/05 03:01:11;;;;;;;;;5.00;4.00;;;;;21.20;56.46;99928.55;106480;1295;18387;-81
2022/11/05 03:03:39;;;;;;;;;4.50;4.50;;;;;21.21;56.43;99926.45;106395;1301;18465;-81
2022/11/05 03:06:06;;;;;;;;;4.00;4.00;;;;;21.20;56.64;99928.50;106425;1286;19223;-81
2022/11/05 03:08:33;;;;;;;;;4.67;4.67;;;;;21.20;56.38;99927.54;106505;1286;20075;-81
2022/11/05 03:11:01;;;;;;;;;5.00;4.00;;;;;21.20;56.44;99925.27;106409;1294;19997;-81
2022/11/05 03:13:28;;;;;;;;;4.00;4.00;;;;;21.20;56.54;99921.50;106489;1295;21894;-81
2022/11/05 03:15:55;;;;;;;;;4.00;4.00;;;;;21.21;56.66;99929.89;106372;1294;21941;-81
2022/11/05 03:18:23;;;;;;;;;4.00;4.00;;;;;21.20;56.45;99931.14;106385;1294;22193;-81
2022/11/05 03:20:50;;;;;;;;;4.50;4.00;;;;;21.19;56.49;99921.84;106434;1286;21524;-81
2022/11/05 03:23:18;;;;;;;;;4.00;4.00;;;;;21.19;56.68;99926.20;106411;1286;22249;-81
2022/11/05 03:25:45;;;;;;;;;4.00;4.00;;;;;21.19;56.44;99925.90;106355;1293;20809;-81
2022/11/05 03:28:12;;;;;;;;;5.00;5.00;;;;;21.19;56.63;99931.73;106502;1286;19516;-81
2022/11/05 03:30:40;;;;;;;;;4.50;4.50;;;;;21.19;56.45;99937.72;106420;1294;21469;-81
2022/11/05 03:33:07;;;;;;;;;4.00;4.00;;;;;21.19;56.59;99947.23;106376;1286;21658;-81
2022/11/05 03:35:35;;;;;;;;;4.00;4.00;;;;;21.20;56.45;99950.77;106457;1295;21702;-81
2022/11/05 03:38:02;;;;;;;;;5.00;4.33;;;;;21.18;56.44;99947.69;106386;1294;18327;-81
2022/11/05 03:40:29;;;;;;;;;4.00;4.00;;;;;21.18;56.55;99951.48;106485;1295;18341;-81
2022/11/05 03:42:57;;;;;;;;;4.00;4.00;;;;;21.19;56.62;99948.00;106525;1294;21192;-81
2022/11/05 03:45:24;;;;;;;;;4.00;4.00;;;;;21.19;56.45;99947.11;106507;1285;20332;-82
2022/11/05 03:47:51;;;;;;;;;;;;;;;21.19;56.44;99962.34;106555;1285;20131;-81
2022/11/05 03:50:19;;;;;;;;;5.00;4.00;;;;;21.19;56.44;99966.52;106381;1295;21625;-81
2022/11/05 03:52:46;;;;;;;;;2.00;2.00;;;;;21.18;56.55;99968.75;106495;1294;18213;-81
2022/11/05 03:55:13;;;;;;;;;4.00;4.00;;;;;21.18;56.58;99974.73;106465;1294;18483;-81
2022/11/05 03:57:41;;;;;;;;;4.00;4.00;;;;;21.18;56.39;99984.02;106409;1293;20984;-81
2022/11/05 04:00:08;;;;;;;;;4.00;4.00;;;;;21.17;56.63;99988.39;106427;1286;19287;-81
2022/11/05 04:02:35;;;;;;;;;4.00;2.00;;;;;21.16;56.32;99990.10;106482;1294;18471;-81
2022/11/05 04:05:03;;;;;;;;;5.50;4.50;;;;;21.17;56.55;99998.16;106375;1294;20771;-81
2022/11/05 04:18:30;;;;;;;;;2.00;2.00;;;;;21.17;56.28;100016.48;106514;1295;21917;-81
2022/11/05 04:26:36;;;;;;;;;;;;;;;21.15;56.42;100013.61;105914;1303;22777;-82
2022/11/05 04:31:49;;;;;;;;;3.00;3.00;;;;;21.16;56.70;100030.30;105885;1303;21326;-81
2022/11/05 04:34:17;;;;;;;;;;;;;;;21.15;56.55;100032.77;106013;1300;18519;-81
2022/11/05 04:36:45;;;;;;;;;4.00;4.00;;;;;21.16;56.57;100034.23;105998;1300;19585;-81
2022/11/05 04:39:12;;;;;;;;;;;;;;;21.16;56.47;100040.48;105962;1290;22405;-81
2022/11/05 04:41:39;;;;;;;;;4.00;4.00;;;;;21.15;56.29;100041.82;105978;1301;18533;-81
2022/11/05 04:44:07;;;;;;;;;2.00;2.00;;;;;21.15;56.57;100047.60;105995;1291;19332;-81
2022/11/05 04:46:34;;;;;;;;;4.50;4.50;;;;;21.14;56.31;100049.36;105953;1285;19670;-81
2022/11/05 04:49:01;;;;;;;;;4.00;4.00;;;;;21.14;56.53;100047.22;106039;1292;20017;-82
2022/11/05 04:51:29;;;;;;;;;4.00;4.00;;;;;21.14;56.55;100045.21;105935;1275;19328;-81
2022/11/05 04:53:56;;;;;;;;;2.00;2.00;;;;;21.15;56.64;100055.98;105957;1284;21808;-81
2022/11/05 04:56:24;;;;;;;;;4.00;4.00;;;;;21.13;56.45;100055.19;105955;1285;18462;-81
2022/11/05 04:58:51;;;;;;;;;4.00;4.00;;;;;21.14;56.40;100053.43;105946;1288;21535;-81
2022/11/05 05:01:18;;;;;;;;;4.50;4.50;;;;;21.14;56.35;100056.33;105907;1300;18552;-81
2022/11/05 05:03:46;;;;;;;;;4.00;4.00;;;;;21.13;56.37;100055.36;106351;1295;18719;-82
2022/11/05 05:06:13;;;;;;;;;2.00;2.00;;;;;21.13;56.62;100054.22;106383;1286;19260;-81
2022/11/05 05:08:40;;;;;;;;;;;;;;;21.13;56.51;100054.77;106421;1289;18817;-81
2022/11/05 05:11:08;;;;;;;;;4.00;4.00;;;;;21.13;56.61;100059.92;106461;1286;18541;-82
2022/11/05 05:13:35;;;;;;;;;4.00;4.00;;;;;21.13;56.52;100060.64;106414;1294;19274;-82
2022/11/05 05:16:02;;;;;;;;;4.00;3.00;;;;;21.13;56.42;100059.52;106359;1295;18729;-81
2022/11/05 05:18:30;;;;;;;;;4.00;4.00;;;;;21.14;56.47;100062.20;106417;1285;20012;-81
2022/11/05 05:23:42;;;;;;;;;2.00;2.00;;;;;21.13;56.44;100080.80;106429;1285;23841;-81
2022/11/05 05:26:10;;;;;;;;;4.00;4.00;;;;;21.13;56.31;100085.75;106403;1280;22241;-81
2022/11/05 05:28:37;;;;;;;;;2.00;2.00;;;;;21.12;56.41;100099.04;106464;1294;20717;-82
2022/11/05 05:31:04;;;;;;;;;2.00;2.00;;;;;21.13;56.41;100104.27;106365;1294;21417;-81
2022/11/05 05:33:32;;;;;;;;;4.00;4.00;;;;;21.14;56.39;100109.44;106413;1294;18489;-81
2022/11/05 05:36:00;;;;;;;;;2.00;2.00;;;;;21.13;56.47;100117.27;106427;1295;19281;-82
2022/11/05 05:38:28;;;;;;;;;2.00;2.00;;;;;21.13;56.26;100119.83;106406;1295;18630;-81
2022/11/05 05:40:55;;;;;;;;;4.00;4.00;;;;;21.13;56.33;100120.29;106339;1298;24638;-81
2022/11/05 05:43:23;;;;;;;;;3.00;3.00;;;;;21.13;56.51;100123.44;106343;1294;19107;-81
2022/11/05 05:45:50;;;;;;;;;2.00;2.00;;;;;21.14;56.49;100122.44;106397;1294;18384;-82
2022/11/05 05:48:17;;;;;;;;;4.00;4.00;;;;;21.13;56.49;100122.21;106419;1294;18516;-81
2022/11/05 05:50:45;;;;;;;;;4.00;4.00;;;;;21.14;56.32;100119.67;106376;1279;20984;-82
2022/11/05 05:53:12;;;;;;;;;4.00;4.00;;;;;21.13;56.54;100123.60;106444;1294;18108;-81
2022/11/05 05:55:39;;;;;;;;;4.00;4.00;;;;;21.14;56.31;100127.59;106345;1298;18512;-81
2022/11/05 05:58:07;;;;;;;;;4.00;4.00;;;;;21.13;56.35;100131.48;106393;1294;19240;-81
2022/11/05 06:00:34;;;;;;;;;5.50;4.00;;;;;21.13;56.52;100134.25;106452;1278;18446;-80
2022/11/05 06:03:01;;;;;;;;;4.00;4.00;;;;;21.14;56.34;100140.45;106401;1295;18507;-81
2022/11/05 06:05:29;;;;;;;;;4.00;4.00;;;;;21.13;56.46;100142.34;106424;1286;22016;-81
2022/11/05 06:07:56;;;;;;;;;4.00;4.00;;;;;21.14;56.51;100142.27;106407;1288;18982;-81
2022/11/05 06:10:23;;;;;;;;;4.00;2.00;;;;;21.13;56.43;100144.98;106382;1294;20495;-81
2022/11/05 06:12:51;;;;;;;;;5.00;4.00;;;;;21.14;56.33;100149.94;106591;1286;19253;-81
2022/11/05 06:15:19;;;;;;;;;4.00;3.00;;;;;21.13;56.54;100154.38;106418;1278;22084;-81
2022/11/05 06:17:46;;;;;;;;;4.00;2.00;;;;;21.12;56.37;100160.52;106424;1279;18654;-81
2022/11/05 06:20:13;;;;;;;;;4.00;4.00;;;;;21.14;56.33;100167.38;106444;1278;19256;-81
2022/11/05 06:22:41;;;;;;;;;2.00;2.00;;;;;21.13;56.34;100170.52;106482;1278;19560;-78
2022/11/05 06:25:08;;;;;;;;;4.00;4.00;;;;;21.13;56.40;100171.65;106414;1295;19012;-82
2022/11/05 06:27:36;;;;;;;;;4.00;4.00;;;;;21.14;56.37;100175.88;106431;1294;22748;-81
2022/11/05 06:30:03;;;;;;;;;4.00;4.00;;;;;21.12;56.43;100176.42;106499;1294;20118;-81
2022/11/05 06:32:31;;;;;;;;;5.00;5.00;;;;;21.13;56.53;100181.50;106433;1272;19520;-82
2022/11/05 06:34:58;;;;;;;;;4.00;4.00;;;;;21.14;56.39;100190.43;106445;1286;19252;-81
2022/11/05 06:37:26;;;;;;;;;4.00;4.00;;;;;21.16;56.43;100196.86;106420;1295;18354;-82
2022/11/05 06:39:55;;;;;;;;;3.00;3.00;;;;;21.18;56.62;100196.98;106410;1294;18483;-80
2022/11/05 06:42:24;;;;;;;;;5.00;5.00;;;;;21.19;56.81;100200.69;106450;1279;22770;-82
2022/11/05 06:44:51;;;;;;;;;3.33;3.33;;;;;21.18;56.83;100205.08;106462;1285;21636;-82
2022/11/05 06:47:19;;;;;;;;;4.00;4.00;;;;;21.19;57.11;100211.58;106499;1295;18457;-81
2022/11/05 06:49:46;;;;;;;;;5.00;4.00;;;;;21.18;57.07;100220.92;106407;1294;20173;-81
2022/11/05 06:52:13;;;;;;;;;5.00;4.50;;;;;21.17;57.02;100223.02;106443;1277;18322;-81
2022/11/05 06:54:41;;;;;;;;;2.00;2.00;;;;;21.18;57.02;100224.27;106463;1278;18564;-82
2022/11/05 06:57:09;;;;;;;;;4.00;4.00;;;;;21.18;56.97;100227.17;106435;1278;19677;-82
2022/11/05 06:59:36;;;;;;;;;4.00;4.00;;;;;21.17;56.94;100231.39;106441;1272;18343;-81
2022/11/05 07:02:04;;;;;;;;;5.00;5.00;;;;;21.16;57.09;100236.58;106510;1294;18483;-82
2022/11/05 07:04:31;;;;;;;;;2.00;2.00;;;;;21.18;57.11;100238.44;106490;1286;21280;-82
2022/11/05 07:06:59;;;;;;;;;4.00;4.00;;;;;21.18;56.98;100240.07;106562;1279;23666;-83
2022/11/05 07:09:26;;;;;;;;;4.00;4.00;;;;;21.16;57.08;100238.58;106466;1286;22522;-82
2022/11/05 07:11:53;;;;;;;;;4.00;2.00;;;;;21.17;57.08;100246.31;106407;1277;21889;-80
2022/11/05 07:14:21;;;;;;;;;4.50;4.00;;;;;21.16;57.36;100252.21;106382;1285;21975;-81
2022/11/05 07:16:48;;;;;;;;;6.67;6.00;;;;;21.17;57.12;100259.60;106374;1294;20030;-82
2022/11/05 07:19:15;;;;;;;;;4.50;4.50;;;;;21.18;57.29;100264.41;106487;1286;19225;-82
2022/11/05 07:21:44;;;;;;;;;5.00;5.00;;;;;21.20;57.26;100270.33;106389;1277;18643;-81
2022/11/05 07:24:13;;;;;;;;;5.00;5.00;;;;;21.23;57.50;100281.40;106405;1294;18370;-80
2022/11/05 07:26:40;;;;;;;;;4.00;4.00;;;;;21.23;57.74;100280.61;106377;1277;19265;-80
2022/11/05 07:29:07;;;;;;;;;2.00;2.00;;;;;21.27;57.90;100284.81;106426;1279;18883;-79
2022/11/05 07:31:35;;;;;;;;;7.50;7.00;;;;;21.28;58.09;100286.66;106403;1286;18733;-79
2022/11/05 07:34:02;;;;;;;;;4.00;4.00;;;;;21.28;58.24;100293.60;106373;1294;19277;-78
2022/11/05 07:36:30;;;;;;;;;5.50;5.00;;;;;21.28;58.44;100298.30;106302;1279;21841;-79
2022/11/05 07:38:57;;;;;;;;;5.00;5.00;;;;;21.30;58.29;100303.63;106351;1285;22765;-79
2022/11/05 07:41:24;;;;;;;;;8.00;6.00;;;;;21.30;58.25;100310.32;106458;1289;19292;-79
2022/11/05 07:43:52;;;;;;;;;5.50;5.00;;;;;21.33;58.37;100312.11;106465;1278;18332;-78
2022/11/05 07:46:19;;;;;;;;;5.00;5.00;;;;;21.33;58.77;100309.77;106370;1279;21626;-78
2022/11/05 07:48:47;;;;;;;;;6.00;5.00;;;;;21.30;58.89;100317.34;106422;1286;19447;-78
2022/11/05 07:51:14;;;;;;;;;9.00;8.00;;;;;21.31;58.56;100319.86;106420;1295;18442;-80
2022/11/05 07:53:41;;;;;;;;;8.67;8.00;;;;;21.30;58.71;100327.73;106328;1294;18500;-81
2022/11/05 07:56:09;;;;;;;;;8.00;8.00;;;;;21.30;58.59;100328.48;106346;1279;22869;-81
2022/11/05 07:58:37;;;;;;;;;8.00;6.00;;;;;21.31;58.91;100333.95;106401;1294;18363;-80
2022/11/05 08:01:05;;;;;;;;;9.00;8.00;;;;;21.33;58.75;100334.05;106458;1294;18662;-80
2022/11/05 08:03:33;;;;;;;;;10.00;9.00;;;;;21.34;58.89;100333.98;106379;1286;19256;-82
2022/11/05 08:06:00;;;;;;;;;;;;;;;21.37;59.06;100333.02;106263;1278;18440;-82
2022/11/05 08:08:27;;;;;;;;;178.00;134.00;;;;;21.39;58.91;100334.30;106375;1286;18920;-82
2022/11/05 08:10:55;;;;;;;;;118.00;92.00;;;;;21.37;58.95;100333.81;106372;1279;22813;-81
2022/11/05 08:13:22;;;;;;;;;114.50;92.00;;;;;21.34;59.04;100338.51;106459;1278;22340;-82
2022/11/05 08:15:50;;;;;;;;;116.00;93.00;;;;;21.35;58.97;100335.34;106380;1286;18657;-81
2022/11/05 08:18:17;;;;;;;;;108.00;75.00;;;;;21.37;59.13;100333.02;106381;1287;19389;-83
2022/11/05 08:20:44;;;;;;;;;92.50;68.50;;;;;21.41;58.97;100336.76;106417;1285;18786;-81
2022/11/05 08:23:12;;;;;;;;;84.50;61.50;;;;;21.37;58.88;100335.75;106425;1277;18600;-82
2022/11/05 08:25:39;;;;;;;;;70.50;54.00;;;;;21.32;58.84;100345.25;106338;1278;20685;-81
2022/11/05 08:28:07;;;;;;;;;70.50;53.50;;;;;21.28;59.08;100355.91;106417;1286;18467;-82
2022/11/05 08:30:34;;;;;;;;;64.50;48.00;;;;;21.27;58.99;100366.23;106302;1286;19981;-81
2022/11/05 08:33:02;;;;;;;;;54.00;42.00;;;;;21.27;59.07;100372.23;106377;1280;21613;-81
2022/11/05 08:35:29;;;;;;;;;55.50;41.00;;;;;21.27;58.98;100377.17;106421;1286;21033;-82
2022/11/05 08:37:57;;;;;;;;;47.33;37.00;;;;;21.27;59.03;100389.00;106433;1286;21931;-85
2022/11/05 08:40:25;;;;;;;;;36.00;32.50;;;;;21.27;59.03;100386.10;106487;1272;19227;-82
2022/11/05 08:42:53;;;;;;;;;31.00;28.50;;;;;21.26;58.96;100384.00;106448;1272;18518;-81
2022/11/05 08:45:20;;;;;;;;;33.00;27.50;;;;;21.24;58.78;100384.06;106457;1277;18721;-84
2022/11/05 08:47:47;;;;;;;;;29.00;25.00;;;;;21.25;59.03;100389.41;106490;1280;20735;-82
2022/11/05 08:50:15;;;;;;;;;25.33;21.33;;;;;21.30;58.84;100395.36;106508;1285;18647;-81
2022/11/05 08:52:42;;;;;;;;;28.00;21.00;;;;;21.33;59.01;100397.14;106460;1293;20177;-81
2022/11/05 08:55:10;;;;;;;;;21.00;17.00;;;;;21.35;59.03;100403.48;106404;1277;20820;-81
2022/11/05 08:57:37;;;;;;;;;;;;;;;21.34;59.69;100406.08;106394;1286;18479;-82
2022/11/05 09:00:05;;;;;;;;;24.50;22.50;;;;;21.36;60.11;100410.98;106393;1286;18516;-81
2022/11/05 09:02:32;;;;;;;;;25.00;19.00;;;;;21.39;60.40;100408.67;106392;1286;20694;-80
2022/11/05 09:04:59;;;;;;;;;15.00;15.00;;;;;21.41;61.05;100411.77;106413;1286;22820;-81
2022/11/05 09:07:27;;;;;;;;;14.00;13.00;;;;;21.42;61.34;100417.10;106383;1278;19198;-82
2022/11/05 09:09:54;;;;;;;;;15.50;14.50;;;;;21.43;61.35;100418.96;106423;1279;19270;-82
2022/11/05 09:12:22;;;;;;;;;14.00;13.00;;;;;21.46;61.74;100424.66;106382;1286;18631;-81
2022/11/05 09:14:49;;;;;;;;;16.00;14.00;;;;;21.48;61.86;100423.35;106463;1286;18556;-80
2022/11/05 09:17:16;;;;;;;;;16.33;12.00;;;;;21.50;61.77;100426.89;106402;1286;19228;-80
2022/11/05 09:19:44;;;;;;;;;17.00;16.00;;;;;21.49;61.93;100428.95;106332;1298;164845;-84
2022/11/05 09:22:11;;;;;;;;;16.00;16.00;;;;;21.49;62.01;100434.27;106405;1293;18562;-84
2022/11/05 09:24:39;;;;;;;;;13.00;12.50;;;;;21.50;61.96;100439.98;106299;1277;20588;-81
2022/11/05 09:27:09;;;;;;;;;16.00;16.00;;;;;21.47;61.82;100443.19;106345;1279;18788;-82
2022/11/05 09:29:36;;;;;;;;;13.00;13.00;;;;;21.44;61.53;100439.98;106287;1286;18575;-82
2022/11/05 09:32:03;;;;;;;;;17.00;16.00;;;;;21.38;61.55;100441.50;106320;1294;20802;-81
2022/11/05 09:34:31;;;;;;;;;16.00;16.00;;;;;21.31;60.89;100448.67;106343;1285;20122;-81
2022/11/05 09:36:58;;;;;;;;;17.67;16.67;;;;;21.21;59.91;100454.46;106441;1292;18540;-84
2022/11/05 09:39:25;;;;;;;;;18.50;16.00;;;;;21.12;59.52;100460.32;106422;1294;19458;-80
2022/11/05 09:41:53;;;;;;;;;18.50;17.00;;;;;21.15;59.28;100466.23;106366;1293;19977;-80
2022/11/05 09:44:20;;;;;;;;;13.00;12.00;;;;;21.18;58.95;100472.00;106391;1285;19129;-81
2022/11/05 09:46:47;;;;;;;;;12.00;12.00;;;;;21.20;58.70;100474.54;106362;1286;25290;-80
2022/11/05 09:49:15;;;;;;;;;16.00;15.00;;;;;21.21;58.61;100486.07;106430;1294;22013;-80
2022/11/05 09:51:42;;;;;;;;;12.50;10.50;;;;;21.21;58.61;100490.36;106378;1294;18631;-80
2022/11/05 09:54:09;;;;;;;;;12.00;11.00;;;;;21.21;58.56;100496.39;106384;1294;19341;-80
2022/11/05 09:56:37;;;;;;;;;8.00;6.00;;;;;21.21;58.42;100500.05;106423;1293;18547;-80
2022/11/05 09:59:04;;;;;;;;;6.00;6.00;;;;;21.18;58.52;100500.41;106389;1294;18630;-80
2022/11/05 10:01:31;;;;;;;;;7.00;7.00;;;;;21.19;58.51;100502.79;106389;1294;19254;-80
2022/11/05 10:03:59;;;;;;;;;9.50;9.00;;;;;21.20;58.58;100509.41;106477;1286;18906;-80
2022/11/05 10:06:26;;;;;;;;;10.00;8.00;;;;;21.19;58.46;100515.02;106472;1293;18562;-80
2022/11/05 10:08:54;;;;;;;;;6.00;6.00;;;;;21.20;58.38;100520.20;106387;1286;21229;-80
2022/11/05 10:11:21;;;;;;;;;5.00;5.00;;;;;21.18;58.32;100523.41;106370;1296;18506;-80
2022/11/05 10:13:48;;;;;;;;;5.50;5.50;;;;;21.18;58.15;100533.05;106380;1279;18498;-80
2022/11/05 10:16:16;;;;;;;;;7.00;7.00;;;;;21.17;58.31;100535.38;106393;1292;20694;-80
2022/11/05 10:18:43;;;;;;;;;7.00;7.00;;;;;21.17;58.29;100536.91;106454;1294;18328;-80
2022/11/05 10:21:12;;;;;;;;;9.00;9.00;;;;;21.18;58.00;100538.41;106416;1292;19964;-80
2022/11/05 10:23:40;;;;;;;;;6.00;6.00;;;;;21.17;58.03;100543.72;106385;1294;19241;-80
2022/11/05 10:26:08;;;;;;;;;6.00;6.00;;;;;21.17;57.95;100549.61;106408;1294;18729;-80
2022/11/05 10:28:35;;;;;;;;;5.00;5.00;;;;;21.18;57.76;100555.67;106496;1295;18589;-80
2022/11/05 10:31:02;;;;;;;;;6.00;6.00;;;;;21.17;57.86;100566.80;106400;1294;19227;-81
2022/11/05 10:33:30;;;;;;;;;6.00;6.00;;;;;21.17;57.69;100571.89;106408;1293;21632;-80
2022/11/05 10:35:57;;;;;;;;;6.00;5.00;;;;;21.17;57.74;100576.70;106470;1294;18515;-81
2022/11/05 10:38:25;;;;;;;;;6.00;6.00;;;;;21.16;57.73;100577.83;106384;1293;19157;-80
2022/11/05 10:40:52;;;;;;;;;4.00;4.00;;;;;21.16;57.59;100578.36;106382;1292;18399;-80
2022/11/05 10:43:22;;;;;;;;;6.00;5.33;;;;;21.15;57.53;100585.56;106407;1294;18535;-80
2022/11/05 10:45:49;;;;;;;;;4.00;4.00;;;;;21.16;57.63;100590.40;106456;1286;20856;-81
2022/11/05 10:48:17;;;;;;;;;6.00;6.00;;;;;21.16;57.42;100589.31;106379;1293;20114;-80
2022/11/05 10:50:44;;;;;;;;;5.50;4.50;;;;;21.15;57.34;100590.85;106516;1286;18506;-80
2022/11/05 10:53:11;;;;;;;;;5.00;5.00;;;;;21.14;57.58;100590.08;106409;1295;19227;-80
2022/11/05 10:55:39;;;;;;;;;5.00;5.00;;;;;21.15;57.40;100594.84;106379;1294;21739;-81
2022/11/05 10:58:06;;;;;;;;;6.00;6.00;;;;;21.16;57.21;100596.42;106422;1294;18486;-81
2022/11/05 11:00:33;;;;;;;;;5.00;5.00;;;;;21.15;57.29;100595.63;106399;1294;21921;-81
2022/11/05 11:03:01;;;;;;;;;4.00;4.00;;;;;21.15;57.13;100598.30;106420;1286;19800;-80
2022/11/05 11:05:28;;;;;;;;;4.00;4.00;;;;;21.15;57.17;100597.39;106390;1294;18528;-81
2022/11/05 11:07:55;;;;;;;;;4.00;4.00;;;;;21.16;57.23;100596.27;106350;1286;19241;-80
2022/11/05 11:10:23;;;;;;;;;4.33;4.33;;;;;21.15;56.95;100598.02;106433;1294;18642;-80
2022/11/05 11:12:50;;;;;;;;;4.00;4.00;;;;;21.14;57.22;100599.31;106409;1292;20139;-80
2022/11/05 11:15:18;;;;;;;;;4.00;4.00;;;;;21.14;57.14;100605.68;106384;1295;19263;-80
2022/11/05 11:17:45;;;;;;;;;4.50;4.50;;;;;21.15;56.87;100609.42;106364;1294;18677;-80
2022/11/05 11:20:12;;;;;;;;;4.00;4.00;;;;;21.15;57.07;100614.50;106523;1286;18511;-80
2022/11/05 11:22:40;;;;;;;;;4.00;4.00;;;;;21.14;56.69;100622.75;106480;1286;20770;-80
2022/11/05 11:25:07;;;;;;;;;5.00;5.00;;;;;21.14;56.97;100628.41;106383;1294;19519;-80
2022/11/05 11:27:34;;;;;;;;;2.00;2.00;;;;;21.13;56.92;100636.52;106423;1286;18509;-80
2022/11/05 11:30:02;;;;;;;;;5.00;4.00;;;;;21.13;56.85;100642.90;106420;1294;19293;-80
2022/11/05 11:32:29;;;;;;;;;6.00;5.00;;;;;21.14;56.85;100643.74;106389;1292;18430;-80
2022/11/05 11:34:57;;;;;;;;;4.50;4.50;;;;;21.13;56.69;100647.46;106376;1294;18924;-80
2022/11/05 11:37:25;;;;;;;;;5.00;5.00;;;;;21.12;56.69;100647.78;106521;1294;19221;-81
2022/11/05 11:39:52;;;;;;;;;5.67;5.00;;;;;21.14;56.66;100653.00;106412;1294;18498;-80
2022/11/05 11:42:20;;;;;;;;;5.00;4.00;;;;;21.13;56.47;100654.93;106441;1279;18491;-81
2022/11/05 11:44:47;;;;;;;;;4.00;4.00;;;;;21.13;56.48;100654.05;106434;1282;19233;-80
2022/11/05 11:47:14;;;;;;;;;5.00;4.00;;;;;21.13;56.42;100659.12;106525;1278;20857;-80
2022/11/05 11:49:42;;;;;;;;;4.00;4.00;;;;;21.12;56.36;100661.55;106489;1295;18472;-81
2022/11/05 11:52:09;;;;;;;;;6.00;5.00;;;;;21.12;56.47;100662.09;106494;1295;19112;-81
2022/11/05 11:54:36;;;;;;;;;6.00;5.00;;;;;21.13;56.37;100657.98;106483;1283;18410;-81
2022/11/05 11:57:04;;;;;;;;;4.00;4.00;;;;;21.14;56.19;100657.27;106359;1294;18451;-82
2022/11/05 12:03:50;;;;;;;;;4.50;4.50;;;;;21.34;56.53;100657.82;103014;1318;18863;-80
2022/11/05 12:06:18;;;;;;;;;3.00;3.00;;;;;21.29;56.79;100651.92;105257;1301;18373;-81
2022/11/05 12:08:46;;;;;;;;;5.50;5.50;;;;;21.24;56.83;100653.14;105307;1294;18669;-80